createdAt,value
2023-03-26T00:00:42.889Z,0
2023-03-26T00:01:45.548Z,0
2023-03-26T00:03:40.040Z,0
2023-03-26T00:04:40.036Z,0
2023-03-26T00:05:40.051Z,0
2023-03-26T00:06:40.175Z,0
2023-03-26T00:07:40.071Z,0
2023-03-26T00:09:40.043Z,0
2023-03-26T00:10:40.046Z,0
2023-03-26T00:11:40.061Z,0
2023-03-26T00:12:40.058Z,0
2023-03-26T00:13:40.052Z,0
2023-03-26T00:14:40.037Z,0
2023-03-26T00:15:40.055Z,0
2023-03-26T00:16:40.089Z,0
2023-03-26T00:17:40.211Z,0
2023-03-26T00:19:40.036Z,0
2023-03-26T00:20:40.033Z,0
2023-03-26T00:21:42.946Z,0
2023-03-26T00:22:46.875Z,0
2023-03-26T00:24:40.047Z,0
2023-03-26T00:25:40.044Z,0
2023-03-26T00:26:40.043Z,0
2023-03-26T00:27:40.043Z,0
2023-03-26T00:28:40.051Z,0
2023-03-26T00:29:40.042Z,0
2023-03-26T00:30:40.073Z,0
2023-03-26T00:31:40.043Z,0
2023-03-26T00:32:40.075Z,0
2023-03-26T00:33:40.041Z,0
2023-03-26T00:34:40.051Z,0
2023-03-26T00:36:40.035Z,0
2023-03-26T00:37:40.036Z,0
2023-03-26T00:38:40.037Z,0
2023-03-26T00:39:40.243Z,0
2023-03-26T00:41:40.052Z,0
2023-03-26T00:42:40.115Z,0
2023-03-26T00:43:42.972Z,0
2023-03-26T00:44:45.819Z,0
2023-03-26T00:46:40.225Z,0
2023-03-26T00:47:40.106Z,0
2023-03-26T00:48:45.392Z,0
2023-03-26T00:49:40.040Z,0
2023-03-26T00:50:40.054Z,0
2023-03-26T00:51:40.050Z,0
2023-03-26T00:52:40.046Z,0
2023-03-26T00:53:40.038Z,0
2023-03-26T00:55:40.038Z,0
2023-03-26T00:56:40.061Z,0
2023-03-26T00:57:40.070Z,0
2023-03-26T00:58:40.054Z,0
2023-03-26T00:59:40.043Z,0
2023-03-26T01:00:40.063Z,0
2023-03-26T01:01:40.207Z,0
2023-03-26T01:02:40.103Z,0
2023-03-26T01:03:40.067Z,0
2023-03-26T01:04:43.021Z,0
2023-03-26T01:05:45.816Z,0
2023-03-26T01:07:40.054Z,0
2023-03-26T01:08:40.056Z,0
2023-03-26T01:09:40.045Z,0
2023-03-26T01:11:40.043Z,0
2023-03-26T01:12:40.040Z,0
2023-03-26T01:13:40.065Z,0
2023-03-26T01:14:40.071Z,0
2023-03-26T01:15:40.077Z,0
2023-03-26T01:16:40.049Z,0
2023-03-26T01:17:40.051Z,0
2023-03-26T01:18:40.057Z,0
2023-03-26T01:19:40.042Z,0
2023-03-26T01:20:40.033Z,0
2023-03-26T01:21:40.051Z,0
2023-03-26T01:22:40.063Z,0
2023-03-26T01:23:40.063Z,0
2023-03-26T01:24:40.215Z,0
2023-03-26T01:25:42.481Z,0
2023-03-26T01:26:45.939Z,0
2023-03-26T01:28:40.055Z,0
2023-03-26T01:29:40.043Z,0
2023-03-26T01:30:40.045Z,0
2023-03-26T01:31:40.041Z,0
2023-03-26T01:32:40.088Z,0
2023-03-26T01:33:40.094Z,0
2023-03-26T01:34:40.049Z,0
2023-03-26T01:35:40.099Z,0
2023-03-26T01:36:40.045Z,0
2023-03-26T01:37:40.049Z,0
2023-03-26T01:38:40.044Z,0
2023-03-26T01:39:40.036Z,0
2023-03-26T01:40:40.054Z,0
2023-03-26T01:41:40.041Z,0
2023-03-26T01:42:40.041Z,0
2023-03-26T01:43:40.066Z,0
2023-03-26T01:45:40.277Z,0
2023-03-26T01:46:42.639Z,0
2023-03-26T01:47:46.295Z,0
2023-03-26T01:49:40.044Z,0
2023-03-26T01:50:40.044Z,0
2023-03-26T01:51:40.048Z,0
2023-03-26T01:52:40.053Z,0
2023-03-26T01:53:40.068Z,0
2023-03-26T01:54:40.054Z,0
2023-03-26T01:55:40.048Z,0
2023-03-26T01:56:40.064Z,0
2023-03-26T01:57:40.047Z,0
2023-03-26T01:58:40.038Z,0
2023-03-26T01:59:40.064Z,0
2023-03-26T02:00:40.059Z,0
2023-03-26T02:02:40.110Z,0
2023-03-26T02:03:40.071Z,0
2023-03-26T02:04:40.042Z,0
2023-03-26T02:05:40.049Z,0
2023-03-26T02:06:40.382Z,0
2023-03-26T02:07:42.805Z,0
2023-03-26T02:08:46.491Z,0
2023-03-26T02:10:40.042Z,0
2023-03-26T02:11:40.061Z,0
2023-03-26T02:13:40.047Z,0
2023-03-26T02:14:40.033Z,0
2023-03-26T02:15:40.044Z,0
2023-03-26T02:16:40.135Z,0
2023-03-26T02:17:40.129Z,0
2023-03-26T02:18:40.049Z,0
2023-03-26T02:20:40.042Z,0
2023-03-26T02:21:40.047Z,0
2023-03-26T02:22:40.038Z,0
2023-03-26T02:23:40.043Z,0
2023-03-26T02:24:40.044Z,0
2023-03-26T02:25:40.044Z,0
2023-03-26T02:26:40.034Z,0
2023-03-26T02:27:40.446Z,0
2023-03-26T02:28:42.848Z,0
2023-03-26T02:29:46.291Z,0
2023-03-26T02:31:40.174Z,0
2023-03-26T02:32:40.094Z,0
2023-03-26T02:33:40.056Z,0
2023-03-26T02:35:40.122Z,0
2023-03-26T02:36:40.163Z,0
2023-03-26T02:37:40.049Z,0
2023-03-26T02:38:40.063Z,0
2023-03-26T02:40:40.032Z,0
2023-03-26T02:41:40.055Z,0
2023-03-26T02:42:40.043Z,0
2023-03-26T02:43:40.055Z,0
2023-03-26T02:45:40.048Z,0
2023-03-26T02:46:40.032Z,0
2023-03-26T02:47:40.059Z,0
2023-03-26T02:48:40.648Z,0
2023-03-26T02:49:42.959Z,0
2023-03-26T02:50:46.308Z,0
2023-03-26T02:52:40.062Z,0
2023-03-26T02:53:40.067Z,0
2023-03-26T02:55:40.041Z,0
2023-03-26T02:56:40.077Z,0
2023-03-26T02:57:40.040Z,0
2023-03-26T02:58:40.053Z,0
2023-03-26T02:59:40.139Z,0
2023-03-26T03:01:40.041Z,0
2023-03-26T03:03:40.049Z,0
2023-03-26T03:05:40.051Z,0
2023-03-26T03:07:40.057Z,0
2023-03-26T03:09:40.574Z,0
2023-03-26T03:10:43.001Z,0
2023-03-26T03:11:46.372Z,0
2023-03-26T03:13:40.053Z,0
2023-03-26T03:14:40.063Z,0
2023-03-26T03:15:40.049Z,0
2023-03-26T03:16:40.050Z,0
2023-03-26T03:17:40.060Z,0
2023-03-26T03:18:40.035Z,0
2023-03-26T03:19:40.044Z,0
2023-03-26T03:20:40.141Z,0
2023-03-26T03:22:40.037Z,0
2023-03-26T03:23:40.047Z,0
2023-03-26T03:24:40.061Z,0
2023-03-26T03:26:40.031Z,0
2023-03-26T03:27:40.035Z,0
2023-03-26T03:29:40.055Z,0
2023-03-26T03:30:40.784Z,0
2023-03-26T03:31:43.192Z,0
2023-03-26T03:32:46.507Z,0
2023-03-26T03:34:40.051Z,0
2023-03-26T03:35:40.099Z,0
2023-03-26T03:36:40.035Z,0
2023-03-26T03:37:40.044Z,0
2023-03-26T03:38:40.051Z,0
2023-03-26T03:39:40.055Z,0
2023-03-26T03:41:40.039Z,0
2023-03-26T03:43:40.044Z,0
2023-03-26T03:44:40.075Z,0
2023-03-26T03:46:40.088Z,0
2023-03-26T03:47:40.075Z,0
2023-03-26T03:48:40.058Z,0
2023-03-26T03:50:40.071Z,0
2023-03-26T03:51:40.791Z,0
2023-03-26T03:52:43.785Z,0
2023-03-26T03:53:46.554Z,0
2023-03-26T03:55:40.039Z,0
2023-03-26T03:56:40.061Z,0
2023-03-26T03:58:40.043Z,0
2023-03-26T04:00:40.042Z,0
2023-03-26T04:01:40.045Z,0
2023-03-26T04:02:40.129Z,0
2023-03-26T04:03:40.222Z,0
2023-03-26T04:04:40.181Z,0
2023-03-26T04:05:40.050Z,0
2023-03-26T04:07:40.049Z,0
2023-03-26T04:08:40.054Z,0
2023-03-26T04:10:40.044Z,0
2023-03-26T04:12:40.043Z,0
2023-03-26T04:13:40.843Z,0
2023-03-26T04:14:43.903Z,0
2023-03-26T04:15:46.678Z,0
2023-03-26T04:17:40.076Z,0
2023-03-26T04:19:40.064Z,0
2023-03-26T04:21:40.035Z,0
2023-03-26T04:22:40.052Z,0
2023-03-26T04:24:40.079Z,0
2023-03-26T04:26:40.040Z,0
2023-03-26T04:27:40.040Z,0
2023-03-26T04:28:40.038Z,0
2023-03-26T04:29:40.044Z,0
2023-03-26T04:30:40.044Z,0
2023-03-26T04:31:40.071Z,0
2023-03-26T04:32:40.079Z,0
2023-03-26T04:33:40.044Z,0
2023-03-26T04:34:40.887Z,0
2023-03-26T04:35:44.094Z,0
2023-03-26T04:36:46.866Z,0
2023-03-26T04:38:40.040Z,0
2023-03-26T04:39:40.033Z,0.23
2023-03-26T04:40:40.071Z,0.23
2023-03-26T04:42:40.038Z,0.23
2023-03-26T04:43:40.036Z,0.23
2023-03-26T04:44:40.038Z,0.46
2023-03-26T04:45:40.046Z,0.46
2023-03-26T04:47:40.063Z,0.92
2023-03-26T04:48:40.058Z,1.15
2023-03-26T04:49:40.036Z,1.61
2023-03-26T04:50:40.052Z,1.84
2023-03-26T04:52:40.034Z,2.53
2023-03-26T04:53:40.047Z,2.99
2023-03-26T04:54:40.040Z,3.68
2023-03-26T04:55:41.040Z,4.37
2023-03-26T04:56:44.029Z,5.06
2023-03-26T04:57:46.898Z,5.75
2023-03-26T04:59:40.037Z,7.59
2023-03-26T05:00:40.049Z,8.74
2023-03-26T05:02:40.117Z,11.67
2023-03-26T05:03:40.040Z,14.17
2023-03-26T05:04:40.237Z,16.67
2023-03-26T05:05:40.076Z,20
2023-03-26T05:06:40.076Z,23.33
2023-03-26T05:08:40.037Z,35
2023-03-26T05:09:40.046Z,41.67
2023-03-26T05:10:40.041Z,49.17
2023-03-26T05:11:40.056Z,55.83
2023-03-26T05:12:40.055Z,64.17
2023-03-26T05:13:40.052Z,74.17
2023-03-26T05:14:40.041Z,84.17
2023-03-26T05:15:40.046Z,95
2023-03-26T05:16:41.208Z,107.5
2023-03-26T05:17:44.147Z,119.17
2023-03-26T05:18:47.108Z,131.67
2023-03-26T05:20:40.071Z,154.17
2023-03-26T05:22:40.043Z,177.5
2023-03-26T05:23:40.045Z,191.67
2023-03-26T05:25:40.039Z,234.17
2023-03-26T05:26:40.060Z,260
2023-03-26T05:27:40.043Z,285.83
2023-03-26T05:28:40.042Z,310.83
2023-03-26T05:29:40.047Z,338.33
2023-03-26T05:30:40.041Z,366.67
2023-03-26T05:31:40.048Z,396.67
2023-03-26T05:32:40.127Z,419.17
2023-03-26T05:33:40.140Z,439.17
2023-03-26T05:34:40.062Z,475
2023-03-26T05:36:40.047Z,570
2023-03-26T05:37:41.308Z,625
2023-03-26T05:38:44.258Z,681.67
2023-03-26T05:39:47.229Z,735.83
2023-03-26T05:41:40.148Z,849.17
2023-03-26T05:43:40.043Z,986.67
2023-03-26T05:44:40.227Z,1049.17
2023-03-26T05:46:40.040Z,1181.67
2023-03-26T05:47:40.073Z,1232.5
2023-03-26T05:48:40.055Z,1275
2023-03-26T05:49:40.049Z,1305.83
2023-03-26T05:51:40.066Z,1346.67
2023-03-26T05:52:40.044Z,1356.67
2023-03-26T05:53:40.044Z,1386.67
2023-03-26T05:54:40.063Z,1436.67
2023-03-26T05:56:40.074Z,1555.83
2023-03-26T05:57:40.037Z,1620
2023-03-26T05:58:41.372Z,1683.33
2023-03-26T05:59:44.283Z,1745
2023-03-26T06:00:47.250Z,1799.17
2023-03-26T06:02:40.255Z,1860.83
2023-03-26T06:04:40.125Z,1765.83
2023-03-26T06:06:40.036Z,1662.5
2023-03-26T06:07:40.046Z,1703.33
2023-03-26T06:08:40.054Z,1780.83
2023-03-26T06:10:40.050Z,1951.67
2023-03-26T06:11:40.035Z,2026.67
2023-03-26T06:12:40.084Z,2098.33
2023-03-26T06:13:40.108Z,2150.83
2023-03-26T06:15:40.135Z,2276.67
2023-03-26T06:17:40.086Z,2443.33
2023-03-26T06:18:40.065Z,2503.33
2023-03-26T06:19:41.590Z,2547.5
2023-03-26T06:20:44.378Z,2596.67
2023-03-26T06:21:47.377Z,2652.5
2023-03-26T06:23:40.195Z,2779.17
2023-03-26T06:25:40.035Z,2967.5
2023-03-26T06:26:40.045Z,3063.33
2023-03-26T06:27:40.038Z,3153.33
2023-03-26T06:28:40.040Z,3228.33
2023-03-26T06:29:40.061Z,3289.17
2023-03-26T06:31:40.056Z,3390
2023-03-26T06:33:40.154Z,3520
2023-03-26T06:35:40.064Z,3635
2023-03-26T06:36:40.036Z,3690
2023-03-26T06:37:40.034Z,3753.33
2023-03-26T06:39:40.043Z,3907.5
2023-03-26T06:40:41.605Z,3970
2023-03-26T06:41:44.593Z,3996.67
2023-03-26T06:43:07.273Z,3970.83
2023-03-26T06:44:40.098Z,3980.83
2023-03-26T06:45:40.201Z,4017.5
2023-03-26T06:46:40.402Z,4030
2023-03-26T06:47:40.332Z,4030.83
2023-03-26T06:49:40.356Z,3986.67
2023-03-26T06:51:40.051Z,3954.17
2023-03-26T06:52:40.136Z,3960.83
2023-03-26T06:54:40.206Z,4088.33
2023-03-26T06:56:40.066Z,4434.17
2023-03-26T06:57:40.127Z,4600
2023-03-26T06:59:40.545Z,4790.83
2023-03-26T07:00:40.563Z,4800
2023-03-26T07:01:41.764Z,4792.5
2023-03-26T07:02:44.618Z,4746.67
2023-03-26T07:03:47.652Z,4663.33
2023-03-26T07:05:40.043Z,4446.67
2023-03-26T07:06:40.050Z,4296.67
2023-03-26T07:07:40.502Z,4140.83
2023-03-26T07:08:40.071Z,4015
2023-03-26T07:09:40.073Z,3951.67
2023-03-26T07:10:40.054Z,3930.83
2023-03-26T07:11:40.051Z,3900.83
2023-03-26T07:13:40.076Z,3787.5
2023-03-26T07:15:40.050Z,3661.67
2023-03-26T07:16:40.064Z,3580.83
2023-03-26T07:17:40.051Z,3450
2023-03-26T07:18:40.066Z,3267.5
2023-03-26T07:19:40.224Z,3128.33
2023-03-26T07:21:40.045Z,3070
2023-03-26T07:22:40.042Z,3131.67
2023-03-26T07:23:42.002Z,3235.83
2023-03-26T07:24:44.856Z,3361.67
2023-03-26T07:26:40.050Z,3678.33
2023-03-26T07:27:40.043Z,3910
2023-03-26T07:28:40.072Z,4145.83
2023-03-26T07:30:40.046Z,4500
2023-03-26T07:32:40.098Z,4599.17
2023-03-26T07:33:40.066Z,4502.5
2023-03-26T07:34:40.063Z,4326.67
2023-03-26T07:36:40.041Z,4188.33
2023-03-26T07:37:40.039Z,4299.17
2023-03-26T07:39:40.063Z,4693.33
2023-03-26T07:41:40.034Z,4989.17
2023-03-26T07:42:40.045Z,5052.5
2023-03-26T07:43:40.043Z,5096.67
2023-03-26T07:44:41.618Z,5143.33
2023-03-26T07:45:45.272Z,5185.83
2023-03-26T07:47:40.083Z,5215.83
2023-03-26T07:48:40.038Z,5279.17
2023-03-26T07:49:40.062Z,5340.83
2023-03-26T07:50:40.040Z,5395
2023-03-26T07:51:40.037Z,5465
2023-03-26T07:52:40.046Z,5590
2023-03-26T07:53:40.216Z,5715.83
2023-03-26T07:54:40.084Z,5823.33
2023-03-26T07:56:40.088Z,6047.5
2023-03-26T07:57:40.041Z,6182.5
2023-03-26T07:58:40.047Z,6275
2023-03-26T07:59:40.070Z,6343.33
2023-03-26T08:01:40.040Z,6395
2023-03-26T08:02:40.088Z,6330.83
2023-03-26T08:03:40.084Z,6241.67
2023-03-26T08:04:40.089Z,6164.17
2023-03-26T08:05:42.150Z,6039.17
2023-03-26T08:06:45.124Z,5945
2023-03-26T08:08:40.042Z,5732.5
2023-03-26T08:09:40.048Z,5653.33
2023-03-26T08:11:40.044Z,5542.5
2023-03-26T08:12:40.042Z,5493.33
2023-03-26T08:13:40.042Z,5459.17
2023-03-26T08:14:40.044Z,5410
2023-03-26T08:15:40.077Z,5355
2023-03-26T08:17:40.056Z,5384.17
2023-03-26T08:18:40.039Z,5436.67
2023-03-26T08:19:40.032Z,5494.17
2023-03-26T08:20:40.040Z,5550.83
2023-03-26T08:21:40.060Z,5596.67
2023-03-26T08:22:40.051Z,5684.17
2023-03-26T08:23:50.171Z,5764.17
2023-03-26T08:24:40.040Z,5820
2023-03-26T08:25:40.042Z,5859.17
2023-03-26T08:26:42.309Z,5908.33
2023-03-26T08:27:45.216Z,5962.5
2023-03-26T08:29:40.032Z,6067.5
2023-03-26T08:30:40.145Z,6115.83
2023-03-26T08:31:40.147Z,6137.5
2023-03-26T08:32:40.070Z,6151.67
2023-03-26T08:33:40.127Z,6158.33
2023-03-26T08:35:40.096Z,6174.17
2023-03-26T08:37:40.049Z,6218.33
2023-03-26T08:38:40.060Z,6234.17
2023-03-26T08:39:40.059Z,6213.33
2023-03-26T08:40:40.079Z,6177.5
2023-03-26T08:42:40.035Z,6096.67
2023-03-26T08:43:40.055Z,6065.83
2023-03-26T08:44:40.041Z,6033.33
2023-03-26T08:45:40.050Z,6029.17
2023-03-26T08:47:42.495Z,5999.17
2023-03-26T08:48:45.307Z,6006.67
2023-03-26T08:50:40.047Z,6025.83
2023-03-26T08:51:40.054Z,6082.5
2023-03-26T08:52:40.046Z,6095.83
2023-03-26T08:53:40.262Z,6108.33
2023-03-26T08:54:40.233Z,6123.33
2023-03-26T08:56:40.117Z,6157.5
2023-03-26T08:57:40.046Z,6168.33
2023-03-26T08:58:40.057Z,6178.33
2023-03-26T09:00:40.053Z,6180.83
2023-03-26T09:01:40.075Z,6172.5
2023-03-26T09:02:40.051Z,6157.5
2023-03-26T09:03:40.070Z,6135.83
2023-03-26T09:04:40.050Z,6120.83
2023-03-26T09:05:40.062Z,6115
2023-03-26T09:06:40.077Z,6121.67
2023-03-26T09:08:54.065Z,6166.67
2023-03-26T09:09:45.344Z,6190.83
2023-03-26T09:10:40.047Z,6225.83
2023-03-26T09:11:40.048Z,6291.67
2023-03-26T09:12:40.043Z,6360
2023-03-26T09:13:40.071Z,6445.83
2023-03-26T09:14:40.075Z,6540.83
2023-03-26T09:16:40.082Z,6740
2023-03-26T09:17:40.053Z,6842.5
2023-03-26T09:18:40.045Z,6915.83
2023-03-26T09:19:40.045Z,6985
2023-03-26T09:20:40.052Z,7025
2023-03-26T09:21:40.043Z,7047.5
2023-03-26T09:22:40.046Z,7071.67
2023-03-26T09:23:40.042Z,7091.67
2023-03-26T09:24:40.041Z,7120.83
2023-03-26T09:25:40.049Z,7177.5
2023-03-26T09:26:40.043Z,7237.5
2023-03-26T09:27:40.037Z,7323.33
2023-03-26T09:28:40.047Z,7400.83
2023-03-26T09:29:42.609Z,7478.33
2023-03-26T09:30:45.440Z,7548.33
2023-03-26T09:32:40.062Z,7663.33
2023-03-26T09:33:40.048Z,7715
2023-03-26T09:34:40.046Z,7774.17
2023-03-26T09:35:40.049Z,7818.33
2023-03-26T09:36:40.040Z,7873.33
2023-03-26T09:37:56.540Z,7920
2023-03-26T09:38:40.041Z,7938.33
2023-03-26T09:39:40.063Z,7958.33
2023-03-26T09:41:40.068Z,7904.17
2023-03-26T09:42:40.045Z,7843.33
2023-03-26T09:43:40.055Z,7775.83
2023-03-26T09:44:40.043Z,7695
2023-03-26T09:45:40.062Z,7615
2023-03-26T09:46:40.119Z,7542.5
2023-03-26T09:48:40.041Z,7445
2023-03-26T09:49:40.048Z,7412.5
2023-03-26T09:50:42.663Z,7375
2023-03-26T09:51:45.528Z,7346.67
2023-03-26T09:53:40.044Z,7277.5
2023-03-26T09:54:40.046Z,7261.67
2023-03-26T09:55:40.042Z,7250
2023-03-26T09:56:40.061Z,7256.67
2023-03-26T09:57:40.069Z,7268.33
2023-03-26T09:58:40.035Z,7300.83
2023-03-26T09:59:40.044Z,7295.83
2023-03-26T10:00:40.106Z,7273.33
2023-03-26T10:02:45.760Z,7220.83
2023-03-26T10:04:40.068Z,7239.17
2023-03-26T10:05:40.058Z,7270
2023-03-26T10:07:40.139Z,7283.33
2023-03-26T10:09:40.036Z,7315
2023-03-26T10:10:40.064Z,7318.33
2023-03-26T10:11:42.793Z,7314.17
2023-03-26T10:12:45.618Z,7307.5
2023-03-26T10:14:40.041Z,7302.5
2023-03-26T10:15:40.036Z,7296.67
2023-03-26T10:16:40.065Z,7299.17
2023-03-26T10:17:40.111Z,7333.33
2023-03-26T10:18:40.047Z,7385
2023-03-26T10:19:40.058Z,7486.67
2023-03-26T10:20:40.092Z,7639.17
2023-03-26T10:22:40.046Z,8060
2023-03-26T10:23:40.030Z,8307.5
2023-03-26T10:24:40.131Z,8515
2023-03-26T10:26:40.065Z,8718.33
2023-03-26T10:28:40.035Z,8585
2023-03-26T10:29:40.184Z,8403.33
2023-03-26T10:31:40.030Z,7840
2023-03-26T10:32:40.073Z,7496.67
2023-03-26T10:33:43.084Z,7155
2023-03-26T10:34:45.933Z,6814.17
2023-03-26T10:36:40.078Z,6052.5
2023-03-26T10:37:40.089Z,5779.17
2023-03-26T10:38:40.053Z,5696.67
2023-03-26T10:39:41.140Z,5730.83
2023-03-26T10:40:40.036Z,5860
2023-03-26T10:41:40.059Z,5970.83
2023-03-26T10:43:40.040Z,5935
2023-03-26T10:45:40.034Z,5995.83
2023-03-26T10:46:40.085Z,6151.67
2023-03-26T10:48:40.039Z,6700.83
2023-03-26T10:49:40.038Z,7065
2023-03-26T10:50:40.036Z,7438.33
2023-03-26T10:51:40.037Z,7807.5
2023-03-26T10:52:40.039Z,8153.33
2023-03-26T10:53:40.156Z,8455
2023-03-26T10:54:43.255Z,8692.5
2023-03-26T10:55:45.979Z,8855
2023-03-26T10:57:40.039Z,8995.83
2023-03-26T10:58:48.899Z,8920
2023-03-26T10:59:40.061Z,8733.33
2023-03-26T11:00:40.040Z,8427.5
2023-03-26T11:02:40.064Z,7595
2023-03-26T11:03:40.051Z,7219.17
2023-03-26T11:04:40.050Z,6932.5
2023-03-26T11:06:40.042Z,6493.33
2023-03-26T11:07:40.041Z,6333.33
2023-03-26T11:08:40.056Z,6190
2023-03-26T11:09:40.049Z,6075
2023-03-26T11:10:40.037Z,5983.33
2023-03-26T11:11:40.045Z,5914.17
2023-03-26T11:12:40.043Z,5866.67
2023-03-26T11:13:40.045Z,5831.67
2023-03-26T11:14:40.228Z,5836.67
2023-03-26T11:15:42.716Z,5874.17
2023-03-26T11:16:46.008Z,5920.83
2023-03-26T11:18:40.067Z,6083.33
2023-03-26T11:19:40.044Z,6157.5
2023-03-26T11:20:40.048Z,6216.67
2023-03-26T11:21:40.048Z,6260.83
2023-03-26T11:22:40.052Z,6247.5
2023-03-26T11:23:40.072Z,6200.83
2023-03-26T11:25:40.049Z,6147.5
2023-03-26T11:26:40.134Z,6143.33
2023-03-26T11:27:40.033Z,6144.17
2023-03-26T11:28:40.065Z,6142.5
2023-03-26T11:30:40.121Z,6130.83
2023-03-26T11:32:40.061Z,6156.67
2023-03-26T11:33:45.439Z,6175.83
2023-03-26T11:35:41.639Z,6170
2023-03-26T11:36:42.858Z,6149.17
2023-03-26T11:37:46.185Z,6122.5
2023-03-26T11:39:40.060Z,6161.67
2023-03-26T11:40:40.051Z,6306.67
2023-03-26T11:41:40.076Z,6500.83
2023-03-26T11:43:40.089Z,6906.67
2023-03-26T11:44:40.076Z,7067.5
2023-03-26T11:45:40.044Z,7155.83
2023-03-26T11:46:40.074Z,7145
2023-03-26T11:47:40.064Z,7134.17
2023-03-26T11:48:40.091Z,7188.33
2023-03-26T11:49:40.093Z,7262.5
2023-03-26T11:51:40.063Z,7230.83
2023-03-26T11:52:40.056Z,7129.17
2023-03-26T11:53:40.070Z,7020
2023-03-26T11:54:40.062Z,6924.17
2023-03-26T11:55:40.039Z,6880.83
2023-03-26T11:56:40.425Z,6934.17
2023-03-26T11:57:42.961Z,7095
2023-03-26T11:58:46.234Z,7222.5
2023-03-26T12:00:40.031Z,7085
2023-03-26T12:01:40.066Z,6958.33
2023-03-26T12:02:40.206Z,6920.83
2023-03-26T12:03:40.036Z,6805
2023-03-26T12:04:40.181Z,6660.83
2023-03-26T12:05:40.047Z,6440.83
2023-03-26T12:06:40.046Z,6212.5
2023-03-26T12:07:40.102Z,6138.33
2023-03-26T12:09:40.036Z,6382.5
2023-03-26T12:10:40.054Z,6499.17
2023-03-26T12:12:40.027Z,6792.5
2023-03-26T12:13:40.039Z,6899.17
2023-03-26T12:14:40.057Z,6975.83
2023-03-26T12:16:40.071Z,7285
2023-03-26T12:17:40.950Z,7483.33
2023-03-26T12:18:42.991Z,7581.67
2023-03-26T12:19:46.289Z,7650
2023-03-26T12:21:40.031Z,7480.83
2023-03-26T12:22:41.758Z,7219.17
2023-03-26T12:23:40.045Z,6982.5
2023-03-26T12:24:40.044Z,6880.83
2023-03-26T12:25:40.034Z,6874.17
2023-03-26T12:26:40.043Z,6840.83
2023-03-26T12:27:40.038Z,6717.5
2023-03-26T12:28:41.439Z,6520.83
2023-03-26T12:30:40.065Z,6270.83
2023-03-26T12:31:40.075Z,6390
2023-03-26T12:33:40.047Z,6721.67
2023-03-26T12:34:40.049Z,6740.83
2023-03-26T12:36:40.029Z,6955.83
2023-03-26T12:37:40.042Z,7105.83
2023-03-26T12:38:40.623Z,7270.83
2023-03-26T12:40:06.387Z,7407.5
2023-03-26T12:40:46.409Z,7483.33
2023-03-26T12:42:36.816Z,7503.33
2023-03-26T12:44:45.480Z,7484.17
2023-03-26T12:44:51.801Z,7405.83
2023-03-26T12:44:51.857Z,7447.5
2023-03-26T12:47:55.814Z,7443.33
2023-03-26T12:47:56.717Z,7526.67
2023-03-26T12:48:40.134Z,7610
2023-03-26T12:49:40.225Z,7660
2023-03-26T12:51:40.038Z,7695.83
2023-03-26T12:52:40.042Z,7735.83
2023-03-26T12:53:40.052Z,7827.5
2023-03-26T12:54:40.267Z,7955.83
2023-03-26T12:56:40.066Z,8234.17
2023-03-26T12:57:40.044Z,8355.83
2023-03-26T12:58:40.036Z,8447.5
2023-03-26T12:59:40.328Z,8508.33
2023-03-26T13:00:43.972Z,8545.83
2023-03-26T13:01:46.668Z,8563.33
2023-03-26T13:03:40.035Z,8561.67
2023-03-26T13:04:40.049Z,8554.17
2023-03-26T13:05:40.046Z,8533.33
2023-03-26T13:06:59.020Z,8460
2023-03-26T13:07:40.072Z,8300.83
2023-03-26T13:08:40.033Z,8080.83
2023-03-26T13:09:40.038Z,7760
2023-03-26T13:10:40.056Z,7388.33
2023-03-26T13:11:40.045Z,7130
2023-03-26T13:12:40.042Z,7025.83
2023-03-26T13:13:40.055Z,7063.33
2023-03-26T13:14:40.045Z,7055.83
2023-03-26T13:15:40.098Z,6976.67
2023-03-26T13:17:40.085Z,6632.5
2023-03-26T13:18:40.067Z,6255.83
2023-03-26T13:20:40.751Z,5374.17
2023-03-26T13:21:43.318Z,4960
2023-03-26T13:22:46.127Z,4743.33
2023-03-26T13:24:40.048Z,4640.83
2023-03-26T13:25:40.070Z,4535.83
2023-03-26T13:27:40.045Z,3960.83
2023-03-26T13:28:40.047Z,3662.5
2023-03-26T13:29:40.042Z,3488.33
2023-03-26T13:30:40.062Z,3482.5
2023-03-26T13:31:40.054Z,3563.33
2023-03-26T13:33:40.053Z,3590.83
2023-03-26T13:35:40.132Z,3350.83
2023-03-26T13:36:40.123Z,3303.33
2023-03-26T13:37:40.048Z,3361.67
2023-03-26T13:38:40.037Z,3450
2023-03-26T13:39:40.040Z,3512.5
2023-03-26T13:40:40.039Z,3572.5
2023-03-26T13:41:40.392Z,3693.33
2023-03-26T13:42:44.026Z,3796.67
2023-03-26T13:43:46.886Z,3946.67
2023-03-26T13:45:40.060Z,4633.33
2023-03-26T13:46:40.134Z,4940
2023-03-26T13:47:40.060Z,5249.17
2023-03-26T13:49:40.149Z,5833.33
2023-03-26T13:51:40.043Z,6247.5
2023-03-26T13:52:40.048Z,6190.83
2023-03-26T13:54:40.098Z,5976.67
2023-03-26T13:56:41.514Z,5798.33
2023-03-26T13:57:40.038Z,5505.83
2023-03-26T13:58:40.054Z,5140
2023-03-26T13:59:40.225Z,4890.83
2023-03-26T14:00:41.291Z,4797.5
2023-03-26T14:02:40.074Z,4817.5
2023-03-26T14:03:41.875Z,4846.67
2023-03-26T14:04:44.677Z,4889.17
2023-03-26T14:05:47.617Z,4888.33
2023-03-26T14:07:40.054Z,4840
2023-03-26T14:08:40.047Z,4800
2023-03-26T14:09:40.053Z,4830.83
2023-03-26T14:11:40.046Z,4868.33
2023-03-26T14:12:40.047Z,4715
2023-03-26T14:13:40.052Z,4517.5
2023-03-26T14:14:40.052Z,4585.83
2023-03-26T14:15:40.072Z,4794.17
2023-03-26T14:16:40.040Z,5044.17
2023-03-26T14:17:40.056Z,5440.83
2023-03-26T14:18:40.060Z,5333.33
2023-03-26T14:20:40.050Z,6320.83
2023-03-26T14:21:40.048Z,6507.5
2023-03-26T14:22:40.060Z,6293.33
2023-03-26T14:23:40.064Z,6260
2023-03-26T14:24:41.972Z,6101.67
2023-03-26T14:25:44.737Z,6380.83
2023-03-26T14:26:47.719Z,6243.33
2023-03-26T14:28:40.045Z,6147.5
2023-03-26T14:29:40.073Z,6560
2023-03-26T14:31:40.082Z,7365
2023-03-26T14:33:40.041Z,8345.83
2023-03-26T14:34:40.046Z,8479.17
2023-03-26T14:35:40.042Z,8620.83
2023-03-26T14:36:40.050Z,8714.17
2023-03-26T14:38:40.048Z,8700.83
2023-03-26T14:39:40.049Z,8400
2023-03-26T14:41:40.058Z,8173.33
2023-03-26T14:43:40.035Z,8335
2023-03-26T14:44:47.530Z,8142.5
2023-03-26T14:45:42.107Z,7893.33
2023-03-26T14:46:44.965Z,7654.17
2023-03-26T14:48:40.062Z,7522.5
2023-03-26T14:49:40.058Z,7310
2023-03-26T14:51:40.038Z,7238.33
2023-03-26T14:52:40.049Z,7185.83
2023-03-26T14:54:40.953Z,7012.5
2023-03-26T14:56:40.102Z,6135.83
2023-03-26T14:57:40.038Z,5653.33
2023-03-26T14:58:40.043Z,4718.33
2023-03-26T14:59:40.061Z,3923.33
2023-03-26T15:01:40.105Z,4617.5
2023-03-26T15:02:40.073Z,4909.17
2023-03-26T15:03:40.066Z,5176.67
2023-03-26T15:04:40.042Z,5511.67
2023-03-26T15:05:40.041Z,5742.5
2023-03-26T15:06:42.198Z,5865
2023-03-26T15:07:44.972Z,5930
2023-03-26T15:09:40.061Z,5873.33
2023-03-26T15:10:40.047Z,5760.83
2023-03-26T15:11:40.047Z,5601.67
2023-03-26T15:12:40.056Z,5396.67
2023-03-26T15:13:40.056Z,5334.17
2023-03-26T15:14:40.091Z,5333.33
2023-03-26T15:16:40.050Z,5128.33
2023-03-26T15:17:40.076Z,4852.5
2023-03-26T15:18:40.051Z,4505.83
2023-03-26T15:19:40.063Z,4000
2023-03-26T15:20:40.052Z,3466.67
2023-03-26T15:21:40.039Z,3025
2023-03-26T15:22:40.056Z,2724.17
2023-03-26T15:23:40.042Z,2503.33
2023-03-26T15:24:40.059Z,2331.67
2023-03-26T15:26:40.048Z,2257.5
2023-03-26T15:27:42.296Z,2611.67
2023-03-26T15:28:45.081Z,3164.17
2023-03-26T15:30:40.045Z,3401.67
2023-03-26T15:31:40.075Z,3245.83
2023-03-26T15:32:40.068Z,3226.67
2023-03-26T15:33:40.036Z,3230.83
2023-03-26T15:34:40.059Z,3194.17
2023-03-26T15:36:40.076Z,3286.67
2023-03-26T15:37:40.046Z,3399.17
2023-03-26T15:38:40.042Z,3456.67
2023-03-26T15:39:40.049Z,3478.33
2023-03-26T15:41:40.034Z,2995.83
2023-03-26T15:42:40.037Z,2649.17
2023-03-26T15:43:40.048Z,2373.33
2023-03-26T15:44:47.158Z,2026.67
2023-03-26T15:46:40.038Z,1763.33
2023-03-26T15:47:40.061Z,1713.33
2023-03-26T15:48:42.334Z,1609.17
2023-03-26T15:49:45.196Z,1440
2023-03-26T15:51:46.303Z,1095
2023-03-26T15:52:40.037Z,874.17
2023-03-26T15:53:40.032Z,718.33
2023-03-26T15:54:40.055Z,597.5
2023-03-26T15:55:40.087Z,640
2023-03-26T15:57:40.052Z,668.33
2023-03-26T15:58:40.036Z,614.17
2023-03-26T15:59:40.054Z,595.83
2023-03-26T16:01:40.080Z,625
2023-03-26T16:02:40.092Z,675.83
2023-03-26T16:03:40.049Z,792.5
2023-03-26T16:04:40.076Z,1029.17
2023-03-26T16:06:40.038Z,881.67
2023-03-26T16:07:40.052Z,1054.17